Aspers, Pennsylvania
Current Conditions -  °F | °C
As of 1:53 AM on Thursday 23 Oct 2014 (Local Time) from KTHV Reporting Station
Overcast Overcast  
Wind Chill: 51°   Ceiling: 2600
Heat Index: 51°   Visibility: 10mi
Dew Point: 43°   Wind: 14mph
Humidity: 74%   Direction: 320°NW
Pressure: 29.89"   Gusts: NA
Location:  39.98°N, 77.22°W
Report Text: KTHV 230553Z AUTO 32012KT 10SM OVC026 11/06 A2989 RMK AO2 SLP124 60000 T01060061 10117 20106 56019
Loading
Personal Weather Stations






























Interactive Weather Map
Tropical Storm Tracking
New forecast layout! Learn more

10-Day Weather Forecast

Advertisements
Track Severe Weather on mobile